Time;durP1;ratioP1;P1;durP2;ratioP2;P2;SDS_P1;SDS_P2;PMS_P1;PMS_P2;Temp;Humidity;BMP_temperature;BMP_pressure;BME280_temperature;BME280_humidity;BME280_pressure;Samples;Min_cycle;Max_cycle;Signal;HPM_P1;HPM_P2
2022/08/07 00:01:49;;;;;;;5.10;4.27;;;;;;;;;;5032646;28;20548;-59
2022/08/07 00:04:17;;;;;;;4.43;3.70;;;;;;;;;;5032984;28;20477;-60
2022/08/07 00:06:44;;;;;;;5.60;4.03;;;;;;;;;;5032846;28;20524;-60
2022/08/07 00:09:11;;;;;;;6.23;4.93;;;;;;;;;;5033203;28;20841;-59
2022/08/07 00:11:39;;;;;;;5.43;3.77;;;;;;;;;;5033680;28;20969;-60
2022/08/07 00:14:06;;;;;;;5.70;4.40;;;;;;;;;;5033833;28;20540;-59
2022/08/07 00:16:34;;;;;;;5.47;4.87;;;;;;;;;;5033731;28;20544;-60
2022/08/07 00:19:02;;;;;;;5.87;4.80;;;;;;;;;;5034111;28;20548;-60
2022/08/07 00:21:30;;;;;;;7.80;5.37;;;;;;;;;;5034607;28;20493;-60
2022/08/07 00:23:57;;;;;;;5.73;4.30;;;;;;;;;;5037840;28;20581;-59
2022/08/07 00:26:25;;;;;;;8.83;5.77;;;;;;;;;;5038833;28;20444;-59
2022/08/07 00:28:52;;;;;;;4.90;4.20;;;;;;;;;;5042704;28;20945;-59
2022/08/07 00:31:19;;;;;;;6.30;4.90;;;;;;;;;;5043163;28;20540;-59
2022/08/07 00:33:47;;;;;;;6.37;4.90;;;;;;;;;;5040478;28;20455;-59
2022/08/07 00:36:16;;;;;;;9.07;5.17;;;;;;;;;;5040389;28;21039;-59
2022/08/07 00:38:43;;;;;;;5.80;4.33;;;;;;;;;;5040230;28;20451;-59
2022/08/07 00:41:11;;;;;;;6.00;4.93;;;;;;;;;;5042346;28;20489;-60
2022/08/07 00:43:38;;;;;;;7.00;5.00;;;;;;;;;;5038718;28;20544;-59
2022/08/07 00:46:05;;;;;;;6.27;4.57;;;;;;;;;;5038260;28;20536;-59
2022/08/07 00:48:33;;;;;;;5.53;4.70;;;;;;;;;;5037459;28;20544;-59
2022/08/07 00:51:01;;;;;;;7.53;5.50;;;;;;;;;;5037245;28;20460;-60
2022/08/07 00:53:30;;;;;;;7.43;5.37;;;;;;;;;;5036829;28;20445;-59
2022/08/07 00:55:57;;;;;;;7.20;5.53;;;;;;;;;;5036697;28;20575;-59
2022/08/07 00:58:25;;;;;;;5.13;4.63;;;;;;;;;;5036516;28;21033;-59
2022/08/07 01:00:52;;;;;;;6.50;4.77;;;;;;;;;;5036692;28;20528;-59
2022/08/07 01:03:19;;;;;;;7.37;5.00;;;;;;;;;;5036503;28;20896;-60
2022/08/07 01:05:47;;;;;;;6.30;5.00;;;;;;;;;;5036199;28;20941;-60
2022/08/07 01:08:15;;;;;;;6.37;5.20;;;;;;;;;;5036164;28;20543;-59
2022/08/07 01:10:43;;;;;;;5.67;4.90;;;;;;;;;;5036539;28;20870;-59
2022/08/07 01:13:11;;;;;;;6.70;5.57;;;;;;;;;;5036092;28;20531;-59
2022/08/07 01:15:39;;;;;;;6.90;5.93;;;;;;;;;;5036083;28;20480;-59
2022/08/07 01:18:06;;;;;;;9.30;4.90;;;;;;;;;;5035827;28;20511;-59
2022/08/07 01:20:35;;;;;;;6.50;5.37;;;;;;;;;;5036297;28;20448;-59
2022/08/07 01:23:04;;;;;;;6.60;5.60;;;;;;;;;;5035720;28;20556;-59
2022/08/07 01:25:33;;;;;;;5.10;4.60;;;;;;;;;;5036070;28;20524;-59
2022/08/07 01:28:00;;;;;;;8.60;5.47;;;;;;;;;;5035956;28;20745;-59
2022/08/07 01:30:28;;;;;;;6.07;5.00;;;;;;;;;;5035650;28;20528;-59
2022/08/07 01:32:55;;;;;;;7.37;5.30;;;;;;;;;;5035426;28;20984;-59
2022/08/07 01:35:23;;;;;;;6.93;6.10;;;;;;;;;;5035646;28;20484;-60
2022/08/07 01:37:50;;;;;;;8.00;5.53;;;;;;;;;;5034777;28;21000;-59
2022/08/07 01:40:21;;;;;;;6.60;5.43;;;;;;;;;;5035856;28;20492;-60
2022/08/07 01:42:48;;;;;;;7.23;6.00;;;;;;;;;;5035850;28;20497;-59
2022/08/07 01:45:16;;;;;;;7.53;5.57;;;;;;;;;;5035734;28;20815;-60
2022/08/07 01:47:44;;;;;;;10.00;5.53;;;;;;;;;;5035693;28;20451;-59
2022/08/07 01:50:11;;;;;;;7.93;5.80;;;;;;;;;;5035359;28;20532;-59
2022/08/07 01:52:40;;;;;;;9.00;6.10;;;;;;;;;;5035252;28;21055;-59
2022/08/07 01:55:09;;;;;;;8.53;5.83;;;;;;;;;;5035416;28;20809;-59
2022/08/07 01:57:40;;;;;;;7.47;5.20;;;;;;;;;;5035001;28;20548;-59
2022/08/07 02:00:09;;;;;;;6.50;5.80;;;;;;;;;;5035134;28;20425;-59
2022/08/07 02:02:40;;;;;;;6.93;5.70;;;;;;;;;;5034985;28;20555;-60
2022/08/07 02:05:10;;;;;;;9.90;5.47;;;;;;;;;;5035478;28;20886;-59
2022/08/07 02:07:40;;;;;;;6.77;6.07;;;;;;;;;;5034993;28;20440;-59
2022/08/07 02:10:09;;;;;;;8.80;6.73;;;;;;;;;;5034868;28;20808;-59
2022/08/07 02:12:39;;;;;;;8.13;5.57;;;;;;;;;;5034794;28;20465;-59
2022/08/07 02:15:07;;;;;;;6.57;5.60;;;;;;;;;;5035888;28;20491;-59
2022/08/07 02:17:35;;;;;;;9.50;6.30;;;;;;;;;;5035063;28;20536;-57
2022/08/07 02:20:04;;;;;;;10.90;6.00;;;;;;;;;;5034746;28;20445;-59
2022/08/07 02:22:31;;;;;;;9.37;6.80;;;;;;;;;;5034584;28;21002;-60
2022/08/07 02:24:59;;;;;;;7.20;6.13;;;;;;;;;;5034639;28;20930;-59
2022/08/07 02:27:27;;;;;;;7.07;5.70;;;;;;;;;;5034948;28;20527;-59
2022/08/07 02:29:57;;;;;;;7.40;5.50;;;;;;;;;;5034928;28;20441;-59
2022/08/07 02:32:25;;;;;;;6.73;5.87;;;;;;;;;;5034614;28;20492;-59
2022/08/07 02:34:53;;;;;;;8.00;6.90;;;;;;;;;;5034462;28;20471;-59
2022/08/07 02:37:21;;;;;;;10.00;6.40;;;;;;;;;;5034386;28;20491;-59
2022/08/07 02:39:49;;;;;;;7.60;6.23;;;;;;;;;;5034713;28;20445;-59
2022/08/07 02:42:17;;;;;;;6.80;5.60;;;;;;;;;;5034688;28;20584;-59
2022/08/07 02:44:46;;;;;;;7.60;6.07;;;;;;;;;;5034381;28;20863;-59
2022/08/07 02:47:15;;;;;;;9.17;5.73;;;;;;;;;;5034311;28;21045;-60
2022/08/07 02:49:43;;;;;;;10.10;6.97;;;;;;;;;;5033535;28;20692;-59
2022/08/07 02:52:12;;;;;;;7.57;5.33;;;;;;;;;;5034144;28;21055;-59
2022/08/07 02:54:41;;;;;;;9.67;6.33;;;;;;;;;;5034293;28;20444;-59
2022/08/07 02:57:11;;;;;;;14.07;7.40;;;;;;;;;;5034333;28;20480;-59
2022/08/07 02:59:39;;;;;;;6.70;5.77;;;;;;;;;;5034070;28;20480;-59
2022/08/07 03:02:06;;;;;;;10.37;6.50;;;;;;;;;;5034005;28;21061;-60
2022/08/07 03:04:36;;;;;;;8.20;5.83;;;;;;;;;;5033999;28;20499;-60
2022/08/07 03:07:03;;;;;;;7.90;6.23;;;;;;;;;;5034067;28;20471;-60
2022/08/07 03:09:31;;;;;;;7.70;6.63;;;;;;;;;;5033829;28;20483;-59
2022/08/07 03:11:59;;;;;;;7.80;5.67;;;;;;;;;;5033811;28;20567;-60
2022/08/07 03:14:26;;;;;;;8.40;6.87;;;;;;;;;;5033952;28;20441;-59
2022/08/07 03:16:54;;;;;;;8.33;6.70;;;;;;;;;;5033673;28;20568;-60
2022/08/07 03:19:21;;;;;;;7.63;5.83;;;;;;;;;;5034170;28;20836;-60
2022/08/07 03:21:51;;;;;;;7.50;6.07;;;;;;;;;;5033876;28;20515;-60
2022/08/07 03:24:19;;;;;;;9.00;6.63;;;;;;;;;;5033905;28;20846;-60
2022/08/07 03:26:49;;;;;;;7.20;5.60;;;;;;;;;;5033798;28;20544;-59
2022/08/07 03:29:17;;;;;;;8.13;6.40;;;;;;;;;;5033536;28;20937;-59
2022/08/07 03:31:45;;;;;;;8.73;6.77;;;;;;;;;;5033479;28;20905;-60
2022/08/07 03:34:13;;;;;;;8.30;6.27;;;;;;;;;;5034230;28;20469;-59
2022/08/07 03:36:41;;;;;;;12.83;5.83;;;;;;;;;;5033653;28;20524;-59
2022/08/07 03:39:12;;;;;;;7.10;6.40;;;;;;;;;;5033451;28;20547;-59
2022/08/07 03:41:40;;;;;;;8.10;5.97;;;;;;;;;;5033279;28;20556;-59
2022/08/07 03:44:08;;;;;;;9.93;7.00;;;;;;;;;;5033721;28;20544;-59
2022/08/07 03:46:36;;;;;;;9.17;6.70;;;;;;;;;;5033298;28;20543;-60
2022/08/07 03:49:03;;;;;;;11.73;6.40;;;;;;;;;;5033450;28;20445;-60
2022/08/07 03:51:31;;;;;;;7.47;6.00;;;;;;;;;;5033439;28;20471;-60
2022/08/07 03:53:59;;;;;;;12.60;6.30;;;;;;;;;;5033542;28;20445;-59
2022/08/07 03:56:28;;;;;;;8.03;6.80;;;;;;;;;;5033411;28;20477;-60
2022/08/07 03:58:55;;;;;;;9.67;6.33;;;;;;;;;;5033325;28;20528;-60
2022/08/07 04:01:23;;;;;;;8.30;5.77;;;;;;;;;;5032705;28;20846;-61
2022/08/07 04:03:51;;;;;;;9.43;6.20;;;;;;;;;;5033498;28;20528;-59
2022/08/07 04:06:18;;;;;;;10.80;6.77;;;;;;;;;;5033808;28;20445;-59
2022/08/07 04:10:07;;;;;;;8.93;6.93;;;;;;;;;;5131802;27;20557;-60
2022/08/07 04:12:34;;;;;;;7.77;5.97;;;;;;;;;;5131879;27;20512;-60
2022/08/07 04:15:02;;;;;;;8.17;6.63;;;;;;;;;;5131601;27;20480;-60
2022/08/07 04:17:29;;;;;;;7.43;6.03;;;;;;;;;;5131658;27;20860;-59
2022/08/07 04:19:57;;;;;;;8.40;5.90;;;;;;;;;;5131791;27;20451;-58
2022/08/07 04:22:24;;;;;;;9.83;6.10;;;;;;;;;;5131328;27;20496;-59
2022/08/07 04:24:52;;;;;;;6.83;5.63;;;;;;;;;;5131640;27;20451;-60
2022/08/07 04:27:21;;;;;;;7.97;6.27;;;;;;;;;;5131564;27;20527;-60
2022/08/07 04:29:48;;;;;;;8.57;6.50;;;12.50;99.60;;;;;;5131536;27;20537;-60
2022/08/07 04:32:16;;;;;;;6.97;5.70;;;13.50;99.90;;;;;;5131649;27;20465;-59
2022/08/07 04:34:44;;;;;;;7.50;5.70;;;13.80;99.50;;;;;;5131120;27;21020;-60
2022/08/07 04:37:11;;;;;;;7.20;5.83;;;14.20;98.80;;;;;;5131319;27;20544;-60
2022/08/07 04:39:40;;;;;;;5.83;4.80;;;14.50;98.10;;;;;;5131181;27;20857;-60
2022/08/07 04:42:08;;;;;;;7.83;5.10;;;14.90;97.30;;;;;;5131257;27;20460;-59
2022/08/07 04:44:37;;;;;;;8.40;6.20;;;15.30;96.50;;;;;;5130835;27;20907;-59
2022/08/07 04:47:11;;;;;;;6.20;5.60;;;15.60;95.60;;;;;;5130970;27;20928;-57
2022/08/07 04:49:44;;;;;;;6.07;5.30;;;15.80;94.70;;;;;;5130769;27;20460;-60
2022/08/07 04:52:21;;;;;;;6.40;5.30;;;16.00;93.80;;;;;;5130761;27;21030;-60
2022/08/07 04:54:57;;;;;;;6.53;5.03;;;16.30;92.80;;;;;;5142190;28;20429;-60
2022/08/07 04:57:31;;;;;;;7.97;4.87;;;16.50;92.00;;;;;;5138781;27;21009;-59
2022/08/07 05:00:04;;;;;;;7.47;5.10;;;16.60;91.10;;;;;;5136762;27;20504;-60
2022/08/07 05:02:35;;;;;;;7.40;5.93;;;16.80;90.20;;;;;;5137724;27;20457;-59
2022/08/07 05:05:09;;;;;;;7.00;4.67;;;17.00;88.70;;;;;;5136752;27;20504;-59
2022/08/07 05:07:42;;;;;;;5.03;4.40;;;17.20;86.20;;;;;;5134136;27;20460;-59
2022/08/07 05:10:13;;;;;;;6.87;4.70;;;17.30;84.20;;;;;;5134523;27;20564;-57
2022/08/07 05:12:47;;;;;;;7.87;5.07;;;17.50;82.50;;;;;;5132620;28;20456;-58
2022/08/07 05:15:22;;;;;;;5.90;5.30;;;17.60;80.60;;;;;;5133014;27;20525;-60
2022/08/07 05:17:53;;;;;;;8.07;5.13;;;17.80;78.80;;;;;;5132585;28;20525;-59
2022/08/07 05:20:25;;;;;;;7.97;5.50;;;17.80;76.50;;;;;;5123887;27;20517;-59
2022/08/07 05:22:57;;;;;;;8.77;5.10;;;17.80;75.20;;;;;;5117278;28;20487;-59
2022/08/07 05:25:27;;;;;;;5.27;4.53;;;17.80;74.50;;;;;;5118091;28;20450;-60
2022/08/07 05:27:56;;;;;;;7.73;4.80;;;17.90;73.40;;;;;;5117601;28;20575;-59
2022/08/07 05:30:25;;;;;;;5.23;4.70;;;18.10;72.40;;;;;;5117538;28;20485;-58
2022/08/07 05:32:54;;;;;;;6.17;4.80;;;18.20;71.20;;;;;;5119325;28;20573;-58
2022/08/07 05:35:23;;;;;;;8.50;5.10;;;18.30;70.00;;;;;;5117276;28;20479;-59
2022/08/07 05:37:51;;;;;;;7.40;4.50;;;18.20;69.20;;;;;;5117380;28;20446;-59
2022/08/07 05:40:18;;;;;;;7.13;4.90;;;18.20;68.60;;;;;;5116676;28;20538;-59
2022/08/07 05:42:47;;;;;;;6.20;5.07;;;18.10;68.20;;;;;;5116900;28;20467;-60
2022/08/07 05:45:14;;;;;;;5.47;4.80;;;18.10;68.10;;;;;;5117427;28;20510;-59
2022/08/07 05:47:43;;;;;;;6.33;4.83;;;18.20;67.90;;;;;;5115977;28;20485;-59
2022/08/07 05:50:11;;;;;;;7.37;5.17;;;18.10;67.70;;;;;;5116045;28;20958;-60
2022/08/07 05:52:38;;;;;;;6.73;4.33;;;18.00;67.90;;;;;;5115853;28;20470;-59
2022/08/07 05:55:07;;;;;;;8.43;5.40;;;18.00;67.90;;;;;;5115731;28;20477;-59
2022/08/07 05:57:36;;;;;;;6.13;5.47;;;18.00;67.90;;;;;;5115979;28;20443;-59
2022/08/07 06:00:05;;;;;;;5.57;4.97;;;18.00;67.80;;;;;;5115959;28;20445;-59
2022/08/07 06:02:36;;;;;;;6.00;5.10;;;18.00;67.70;;;;;;5115816;27;20524;-60
2022/08/07 06:05:08;;;;;;;6.20;5.60;;;17.90;67.60;;;;;;5115598;28;20449;-59
2022/08/07 06:07:36;;;;;;;6.00;5.40;;;17.80;67.80;;;;;;5115887;28;20929;-59
2022/08/07 06:10:04;;;;;;;6.60;5.33;;;17.80;67.80;;;;;;5115758;28;20478;-59
2022/08/07 06:12:34;;;;;;;6.50;4.53;;;17.80;67.60;;;;;;5115410;28;21063;-59
2022/08/07 06:15:02;;;;;;;5.80;4.73;;;17.80;67.30;;;;;;5116555;28;20476;-59
2022/08/07 06:17:32;;;;;;;5.87;5.27;;;17.80;67.00;;;;;;5116865;28;20859;-62
2022/08/07 06:20:00;;;;;;;6.53;5.50;;;17.80;66.70;;;;;;5115883;28;20474;-58
2022/08/07 06:22:31;;;;;;;6.10;5.23;;;17.80;66.40;;;;;;5115315;28;20461;-59
2022/08/07 06:24:58;;;;;;;6.10;4.90;;;17.80;66.10;;;;;;5115799;28;20444;-59
2022/08/07 06:27:26;;;;;;;6.20;5.33;;;17.70;65.90;;;;;;5115655;28;20441;-59
2022/08/07 06:29:53;;;;;;;7.53;4.90;;;17.70;65.90;;;;;;5115542;28;20573;-59
2022/08/07 06:32:21;;;;;;;7.53;5.30;;;17.80;66.50;;;;;;5114439;28;20582;-59
2022/08/07 06:34:48;;;;;;;6.10;5.10;;;17.80;65.60;;;;;;5115229;28;20498;-59
2022/08/07 06:37:15;;;;;;;6.47;5.20;;;17.80;65.50;;;;;;5115442;28;20631;-60
2022/08/07 06:39:44;;;;;;;7.20;5.37;;;17.80;65.40;;;;;;5115478;28;20438;-59
2022/08/07 06:42:18;;;;;;;9.33;5.77;;;17.90;65.40;;;;;;5115851;28;20462;-59
2022/08/07 06:44:47;;;;;;;8.27;5.73;;;17.90;65.20;;;;;;5116375;28;20505;-60
2022/08/07 06:47:15;;;;;;;5.63;4.50;;;18.00;65.10;;;;;;5115964;28;20441;-60
2022/08/07 06:49:43;;;;;;;5.27;4.77;;;18.10;65.00;;;;;;5115432;28;20528;-60
2022/08/07 06:52:12;;;;;;;6.60;5.20;;;18.20;64.80;;;;;;5115033;28;20495;-60
2022/08/07 06:54:40;;;;;;;7.30;5.10;;;18.20;64.40;;;;;;5114851;28;20988;-60
2022/08/07 06:57:10;;;;;;;6.73;5.20;;;18.20;64.30;;;;;;5114767;28;20455;-60
2022/08/07 06:59:40;;;;;;;6.53;5.03;;;18.20;64.20;;;;;;5114863;28;20497;-60
2022/08/07 07:02:15;;;;;;;9.13;6.23;;;18.30;64.20;;;;;;5114980;28;20526;-60
2022/08/07 07:04:43;;;;;;;6.77;5.40;;;18.40;64.10;;;;;;5114513;28;20425;-59
2022/08/07 07:07:11;;;;;;;11.40;4.77;;;18.50;63.60;;;;;;5114586;28;20528;-58
2022/08/07 07:09:44;;;;;;;5.80;4.83;;;18.60;63.20;;;;;;5114243;28;20481;-60
2022/08/07 07:12:23;;;;;;;7.13;5.20;;;18.80;63.00;;;;;;5114867;28;20468;-61
2022/08/07 07:14:56;;;;;;;5.80;4.20;;;18.90;62.70;;;;;;5114961;28;20479;-59
2022/08/07 07:17:32;;;;;;;5.07;4.40;;;19.00;62.20;;;;;;5114849;28;20954;-58
2022/08/07 07:20:03;;;;;;;6.80;5.07;;;19.20;61.70;;;;;;5114732;28;20542;-57
2022/08/07 07:22:30;;;;;;;5.47;4.70;;;19.30;60.90;;;;;;5114132;28;20465;-60
2022/08/07 07:24:59;;;;;;;6.30;5.07;;;19.40;60.20;;;;;;5114450;28;20460;-58
2022/08/07 07:27:32;;;;;;;6.60;4.33;;;19.50;59.80;;;;;;5114344;28;20469;-59
2022/08/07 07:30:02;;;;;;;10.30;5.20;;;19.50;59.20;;;;;;5114143;28;20465;-58
2022/08/07 07:32:33;;;;;;;5.73;4.70;;;19.60;58.90;;;;;;5114067;28;20540;-60
2022/08/07 07:35:02;;;;;;;5.80;4.40;;;19.60;58.70;;;;;;5114367;28;20513;-59
2022/08/07 07:37:31;;;;;;;5.30;4.47;;;19.70;58.50;;;;;;5114290;28;20470;-58
2022/08/07 07:40:03;;;;;;;5.93;4.20;;;19.80;58.10;;;;;;5114262;28;20538;-59
2022/08/07 07:42:34;;;;;;;5.10;4.60;;;19.80;57.80;;;;;;5113902;28;20505;-60
2022/08/07 07:45:03;;;;;;;5.97;4.77;;;19.80;57.60;;;;;;5115122;28;20504;-59
2022/08/07 07:47:34;;;;;;;5.40;4.47;;;19.90;57.40;;;;;;5114840;28;20473;-59
2022/08/07 07:50:02;;;;;;;6.17;4.50;;;20.00;57.10;;;;;;5114644;28;20533;-59
2022/08/07 07:52:30;;;;;;;7.07;4.53;;;20.10;56.90;;;;;;5114286;28;20481;-59
2022/08/07 07:54:58;;;;;;;5.33;3.67;;;20.30;56.60;;;;;;5114462;28;20444;-58
2022/08/07 07:57:26;;;;;;;5.30;4.80;;;20.50;56.20;;;;;;5114481;28;20446;-60
2022/08/07 07:59:55;;;;;;;5.87;4.43;;;20.50;55.70;;;;;;5123379;28;20441;-59
2022/08/07 08:02:26;;;;;;;4.67;4.27;;;20.60;55.40;;;;;;5125180;28;20485;-60
2022/08/07 08:04:56;;;;;;;5.00;4.27;;;20.60;55.10;;;;;;5124069;28;20434;-58
2022/08/07 08:07:24;;;;;;;5.00;4.40;;;20.50;55.40;;;;;;5123575;28;20456;-59
2022/08/07 08:09:53;;;;;;;7.83;5.03;;;20.50;55.10;;;;;;5120627;28;21079;-59
2022/08/07 08:12:21;;;;;;;5.33;4.50;;;20.50;55.00;;;;;;5114980;28;20461;-60
2022/08/07 08:14:48;;;;;;;5.40;4.70;;;20.50;54.80;;;;;;5114904;28;20477;-59
2022/08/07 08:17:19;;;;;;;5.40;4.50;;;20.60;54.70;;;;;;5114942;28;20452;-59
2022/08/07 08:19:46;;;;;;;6.90;3.70;;;20.70;54.50;;;;;;5113857;28;20521;-59
2022/08/07 08:27:49;;;;;;;4.70;3.97;;;20.80;54.10;;;;;;5113785;28;20887;-59
2022/08/07 08:30:17;;;;;;;5.90;4.33;;;20.90;53.70;;;;;;5114061;28;20911;-57
2022/08/07 08:32:53;;;;;;;6.97;4.20;;;21.00;53.40;;;;;;5113525;28;20560;-58
2022/08/07 08:35:23;;;;;;;4.57;3.47;;;21.10;53.00;;;;;;5113128;28;20521;-59
2022/08/07 08:37:52;;;;;;;5.10;3.63;;;21.20;52.70;;;;;;5113862;28;20422;-59
2022/08/07 08:40:26;;;;;;;4.63;3.20;;;21.30;52.50;;;;;;5113257;28;20438;-60
2022/08/07 08:42:58;;;;;;;6.50;3.57;;;21.40;52.20;;;;;;5113301;28;20568;-58
2022/08/07 08:45:38;;;;;;;5.23;3.40;;;21.50;51.90;;;;;;5113044;28;20802;-60
2022/08/07 08:48:26;;;;;;;4.20;3.80;;;21.60;51.30;;;;;;5112839;28;20426;-58
2022/08/07 08:51:00;;;;;;;5.57;3.67;;;21.70;51.00;;;;;;5112932;28;20471;-60
2022/08/07 08:53:33;;;;;;;3.57;3.27;;;21.80;50.90;;;;;;5112966;28;20514;-60
2022/08/07 08:56:06;;;;;;;5.33;3.33;;;21.90;50.60;;;;;;5115358;28;20921;-60
2022/08/07 08:58:40;;;;;;;4.40;3.10;;;21.90;50.40;;;;;;5117055;28;20510;-60
2022/08/07 09:01:15;;;;;;;3.90;3.03;;;22.10;50.10;;;;;;5117124;28;20465;-59
2022/08/07 09:03:52;;;;;;;3.03;2.60;;;22.20;49.60;;;;;;5116632;28;20427;-60
2022/08/07 09:06:31;;;;;;;3.23;2.60;;;22.20;49.40;;;;;;5116578;28;20942;-60
2022/08/07 09:09:12;;;;;;;3.53;2.37;;;22.30;49.30;;;;;;5116680;28;20870;-60
2022/08/07 09:11:47;;;;;;;3.23;2.00;;;22.40;48.90;;;;;;5116413;28;20783;-59
2022/08/07 09:14:25;;;;;;;3.07;2.37;;;22.40;48.30;;;;;;5116475;27;20926;-59
2022/08/07 09:17:02;;;;;;;3.97;2.70;;;22.40;47.90;;;;;;5116273;28;20526;-59
2022/08/07 09:19:49;;;;;;;2.80;2.37;;;22.50;47.50;;;;;;5117276;28;20799;-59
2022/08/07 09:22:29;;;;;;;1.93;1.80;;;22.50;47.30;;;;;;5117225;28;20520;-59
2022/08/07 09:25:05;;;;;;;2.87;2.00;;;22.60;47.10;;;;;;5116012;28;20482;-59
2022/08/07 09:27:42;;;;;;;2.70;2.23;;;22.70;46.80;;;;;;5115929;28;20428;-58
2022/08/07 09:30:11;;;;;;;3.27;2.70;;;22.90;46.30;;;;;;5116012;28;20461;-60
2022/08/07 09:32:56;;;;;;;3.53;1.37;;;23.10;45.90;;;;;;5116083;28;20646;-58
2022/08/07 09:35:38;;;;;;;2.50;1.40;;;23.20;45.50;;;;;;5116114;28;20528;-59
2022/08/07 09:38:13;;;;;;;2.47;1.90;;;23.50;44.60;;;;;;5115725;28;20532;-59
2022/08/07 09:40:52;;;;;;;2.43;1.60;;;23.70;44.20;;;;;;5115789;28;20450;-60
2022/08/07 09:43:28;;;;;;;1.53;1.27;;;23.90;43.80;;;;;;5116280;28;20504;-60
2022/08/07 09:46:05;;;;;;;2.07;1.23;;;24.20;43.40;;;;;;5116389;28;20430;-60
2022/08/07 09:48:42;;;;;;;4.17;1.73;;;24.10;42.90;;;;;;5116105;28;20512;-59
2022/08/07 09:51:39;;;;;;;2.77;1.10;;;23.90;43.00;;;;;;5115812;28;20493;-60
2022/08/07 09:54:14;;;;;;;6.17;1.20;;;23.90;42.80;;;;;;5115607;28;20426;-59
2022/08/07 09:57:10;;;;;;;2.67;1.10;;;23.80;42.20;;;;;;5116047;28;20900;-60
2022/08/07 10:00:02;;;;;;;2.77;1.10;;;23.70;41.40;;;;;;5116759;28;20426;-60
2022/08/07 10:03:04;;;;;;;2.53;1.20;;;23.60;40.90;;;;;;5116698;28;20473;-59
2022/08/07 10:06:06;;;;;;;1.20;0.90;;;23.70;40.80;;;;;;5116595;28;20445;-59
2022/08/07 10:09:07;;;;;;;1.30;1.10;;;23.90;40.50;;;;;;5115916;28;20453;-60
2022/08/07 10:11:54;;;;;;;2.20;1.20;;;24.00;39.80;;;;;;5115983;28;20488;-60
2022/08/07 10:14:45;;;;;;;1.20;1.10;;;23.90;39.70;;;;;;5115685;28;20863;-60
2022/08/07 10:17:34;;;;;;;3.23;1.30;;;23.90;39.30;;;;;;5115909;28;20448;-59
2022/08/07 10:20:22;;;;;;;3.20;1.63;;;24.00;39.30;;;;;;5115307;28;20426;-59
2022/08/07 10:23:10;;;;;;;1.77;1.13;;;24.10;38.70;;;;;;5115261;28;20472;-58
2022/08/07 10:25:54;;;;;;;2.83;1.10;;;24.20;38.40;;;;;;5115008;28;20509;-60
2022/08/07 10:28:38;;;;;;;1.10;1.00;;;24.50;38.10;;;;;;5114939;28;20978;-59
2022/08/07 10:31:21;;;;;;;2.07;1.37;;;24.70;37.50;;;;;;5115142;28;20464;-59
2022/08/07 10:34:05;;;;;;;3.30;1.27;;;24.90;37.10;;;;;;5115636;28;20930;-60
2022/08/07 10:36:48;;;;;;;3.10;1.80;;;25.10;36.60;;;;;;5115278;28;20428;-60
2022/08/07 10:39:34;;;;;;;2.20;1.13;;;25.30;36.20;;;;;;5115072;28;20514;-60
2022/08/07 10:42:11;;;;;;;1.80;1.40;;;25.50;36.20;;;;;;5115142;28;20461;-61
2022/08/07 10:44:45;;;;;;;3.10;1.10;;;25.70;36.10;;;;;;5115479;28;20684;-61
2022/08/07 10:47:21;;;;;;;1.80;1.30;;;25.70;35.90;;;;;;5115395;28;20515;-60
2022/08/07 10:49:56;;;;;;;3.13;1.60;;;25.70;35.80;;;;;;5114929;28;20517;-60
2022/08/07 10:52:39;;;;;;;1.93;1.40;;;25.70;35.50;;;;;;5114831;28;20494;-60
2022/08/07 10:55:14;;;;;;;1.70;1.60;;;25.80;35.50;;;;;;5115155;28;20428;-60
2022/08/07 10:57:56;;;;;;;2.20;2.00;;;25.90;35.70;;;;;;5114344;28;20515;-61
2022/08/07 11:00:29;;;;;;;3.37;1.17;;;26.10;35.70;;;;;;5114773;28;20434;-60
2022/08/07 11:03:03;;;;;;;1.00;0.90;;;26.20;35.30;;;;;;5114872;28;20503;-60
2022/08/07 11:05:41;;;;;;;1.73;1.50;;;26.20;35.20;;;;;;5114647;28;20520;-61
2022/08/07 11:08:19;;;;;;;1.43;1.33;;;26.00;35.10;;;;;;5114525;28;20533;-61
2022/08/07 11:10:52;;;;;;;2.70;1.40;;;25.80;35.60;;;;;;5114116;28;20636;-60
2022/08/07 11:13:29;;;;;;;1.67;1.43;;;25.90;35.80;;;;;;5114573;28;20440;-60
2022/08/07 11:16:02;;;;;;;2.13;1.50;;;26.00;35.80;;;;;;5114422;28;20512;-58
2022/08/07 11:18:35;;;;;;;2.80;2.07;;;26.20;35.90;;;;;;5114081;28;20435;-59
2022/08/07 11:21:08;;;;;;;3.83;1.60;;;26.40;35.80;;;;;;5113934;28;20516;-61
2022/08/07 11:23:45;;;;;;;1.80;1.30;;;26.70;36.00;;;;;;5114299;28;20434;-60
2022/08/07 11:26:18;;;;;;;1.50;1.40;;;26.60;34.60;;;;;;5114275;27;20764;-61
2022/08/07 11:28:53;;;;;;;2.57;1.50;;;26.50;34.50;;;;;;5113816;28;20520;-60
2022/08/07 11:31:30;;;;;;;1.43;1.30;;;26.60;34.60;;;;;;5115019;28;20490;-59
2022/08/07 11:34:05;;;;;;;1.50;1.23;;;26.70;34.30;;;;;;5115249;28;20426;-61
2022/08/07 11:36:40;;;;;;;2.03;1.10;;;26.80;33.90;;;;;;5116541;28;20520;-61
2022/08/07 11:39:22;;;;;;;1.30;1.20;;;26.70;33.40;;;;;;5121113;28;20437;-60
2022/08/07 11:41:57;;;;;;;2.63;1.60;;;26.60;33.20;;;;;;5116554;28;20973;-60
2022/08/07 11:44:32;;;;;;;2.20;1.33;;;26.50;33.30;;;;;;5116036;28;20924;-60
2022/08/07 11:47:09;;;;;;;1.70;1.50;;;26.50;33.20;;;;;;5115006;28;20516;-59
2022/08/07 11:50:00;;;;;;;1.27;1.17;;;26.50;33.00;;;;;;5113945;28;20428;-61
2022/08/07 11:52:42;;;;;;;2.10;1.53;;;26.40;33.00;;;;;;5113451;28;20463;-60
2022/08/07 11:55:18;;;;;;;1.53;1.13;;;26.40;32.90;;;;;;5113565;28;20464;-59
2022/08/07 11:57:55;;;;;;;1.40;1.17;;;26.70;32.80;;;;;;5113606;28;20432;-61
2022/08/07 12:00:38;;;;;;;2.33;1.47;;;27.30;32.20;;;;;;5113644;28;20485;-59
2022/08/07 12:03:38;;;;;;;1.70;1.60;;;28.00;31.10;;;;;;5113232;28;20470;-60
2022/08/07 12:06:25;;;;;;;1.50;1.40;;;28.50;30.30;;;;;;5113306;28;20518;-61
2022/08/07 12:08:58;;;;;;;3.50;2.47;;;28.80;29.90;;;;;;5113554;28;20457;-59
2022/08/07 12:11:34;;;;;;;3.30;2.00;;;29.30;29.70;;;;;;5113429;28;20572;-60
2022/08/07 12:14:07;;;;;;;2.70;1.97;;;30.00;29.40;;;;;;5113246;28;20502;-61
2022/08/07 12:16:43;;;;;;;1.63;1.53;;;30.60;28.90;;;;;;5113383;28;20445;-62
2022/08/07 12:19:17;;;;;;;1.60;1.50;;;31.20;28.50;;;;;;5113423;28;20535;-61
2022/08/07 12:21:53;;;;;;;1.80;1.40;;;31.50;28.00;;;;;;5113836;28;20542;-61
2022/08/07 12:24:27;;;;;;;1.57;1.47;;;31.50;27.70;;;;;;5114014;28;20473;-62
2022/08/07 12:27:01;;;;;;;2.43;1.80;;;31.80;27.60;;;;;;5114073;28;20881;-60
2022/08/07 12:29:33;;;;;;;1.77;1.27;;;31.90;27.40;;;;;;5114279;28;20776;-62
2022/08/07 12:32:12;;;;;;;1.60;1.40;;;31.60;27.20;;;;;;5118362;28;20513;-61
2022/08/07 12:34:41;;;;;;;2.07;1.60;;;31.30;27.40;;;;;;5119288;28;20428;-62
2022/08/07 12:37:11;;;;;;;3.33;1.80;;;30.90;27.70;;;;;;5120399;27;20465;-60
2022/08/07 12:39:42;;;;;;;5.33;1.80;;;30.40;28.00;;;;;;5130615;28;20447;-60
2022/08/07 12:42:11;;;;;;;1.43;1.33;;;30.10;28.40;;;;;;5129109;28;20467;-60
2022/08/07 12:44:40;;;;;;;2.20;1.53;;;29.70;28.80;;;;;;5129873;27;20445;-61
2022/08/07 12:47:21;;;;;;;2.80;1.57;;;29.30;29.10;;;;;;5129899;28;20448;-62
2022/08/07 12:49:56;;;;;;;1.83;1.30;;;29.20;29.40;;;;;;5130116;28;20425;-62
2022/08/07 12:52:36;;;;;;;2.63;1.20;;;29.10;29.60;;;;;;5128509;28;20914;-59
2022/08/07 12:55:09;;;;;;;2.37;1.43;;;28.90;29.70;;;;;;5129455;28;20442;-61
2022/08/07 12:57:39;;;;;;;2.67;1.73;;;28.70;29.90;;;;;;5132421;28;20438;-60
2022/08/07 13:00:08;;;;;;;1.50;1.40;;;28.50;30.00;;;;;;5132119;28;20431;-62
2022/08/07 13:03:01;;;;;;;2.40;1.47;;;28.50;30.20;;;;;;5134588;28;20458;-59
2022/08/07 13:05:43;;;;;;;2.33;1.30;;;28.30;30.00;;;;;;5128823;28;20440;-61
2022/08/07 13:08:27;;;;;;;1.60;1.20;;;27.90;30.00;;;;;;5119792;28;20944;-61
2022/08/07 13:11:09;;;;;;;1.47;1.17;;;27.70;30.40;;;;;;5119961;28;20478;-61
2022/08/07 13:13:55;;;;;;;1.70;1.30;;;27.70;30.40;;;;;;5117832;28;20446;-61
2022/08/07 13:16:31;;;;;;;2.00;1.47;;;27.60;30.40;;;;;;5118364;28;20428;-62
2022/08/07 13:19:11;;;;;;;2.17;1.80;;;27.50;30.40;;;;;;5116541;28;20431;-61
2022/08/07 13:21:43;;;;;;;1.93;1.40;;;27.50;30.40;;;;;;5116338;28;20466;-61
2022/08/07 13:24:20;;;;;;;1.30;1.20;;;27.40;30.30;;;;;;5116412;28;20839;-60
2022/08/07 13:26:55;;;;;;;1.97;1.77;;;27.30;30.50;;;;;;5116806;28;20511;-61
2022/08/07 13:29:26;;;;;;;2.63;1.70;;;27.20;30.70;;;;;;5116578;28;20476;-60
2022/08/07 13:32:00;;;;;;;2.03;1.83;;;27.20;30.70;;;;;;5116068;28;20517;-60
2022/08/07 13:34:40;;;;;;;2.10;1.20;;;27.20;30.80;;;;;;5116190;28;20900;-60
2022/08/07 13:37:15;;;;;;;3.13;1.63;;;27.20;30.60;;;;;;5116392;28;20805;-60
2022/08/07 13:39:49;;;;;;;2.43;1.70;;;27.10;30.50;;;;;;5116692;28;20438;-61
2022/08/07 13:42:18;;;;;;;1.57;1.23;;;27.10;30.60;;;;;;5116046;28;20575;-61
2022/08/07 13:44:46;;;;;;;1.57;1.37;;;27.00;30.70;;;;;;5116652;28;20454;-61
2022/08/07 13:47:15;;;;;;;2.60;1.50;;;26.90;30.90;;;;;;5116194;28;20444;-59
2022/08/07 13:49:47;;;;;;;1.90;1.57;;;26.70;31.00;;;;;;5115972;28;20556;-59
2022/08/07 13:52:15;;;;;;;1.57;1.20;;;26.60;31.20;;;;;;5115906;28;21047;-61
2022/08/07 13:54:43;;;;;;;1.50;1.23;;;26.50;31.40;;;;;;5115945;28;21026;-61
2022/08/07 13:57:14;;;;;;;2.67;1.87;;;26.60;31.50;;;;;;5117134;28;20875;-61